Time;durP1;ratioP1;P1;durP2;ratioP2;P2;SDS_P1;SDS_P2;PMS_P1;PMS_P2;Temp;Humidity;BMP_temperature;BMP_pressure;BME280_temperature;BME280_humidity;BME280_pressure;Samples;Min_cycle;Max_cycle;Signal;HPM_P1;HPM_P2
2022/09/04 00:01:18;;;;;;;1.88;1.77;;;;;;;;;;12477329;28;20395;-73
2022/09/04 00:07:20;;;;;;;2.35;1.90;;;;;;;;;;12494836;28;20041;-73
2022/09/04 00:13:26;;;;;;;2.42;2.22;;;;;;;;;;12477199;28;20053;-73
2022/09/04 00:19:31;;;;;;;2.97;2.30;;;;;;;;;;12494444;28;20041;-73
2022/09/04 00:25:42;;;;;;;2.10;2.00;;;;;;;;;;12494422;28;20487;-73
2022/09/04 00:31:48;;;;;;;1.88;1.77;;;;;;;;;;12494553;28;20029;-73
2022/09/04 00:37:54;;;;;;;2.13;1.80;;;;;;;;;;12494551;28;20369;-73
2022/09/04 00:44:15;;;;;;;2.28;2.08;;;;;;;;;;12476147;28;20053;-73
2022/09/04 00:50:26;;;;;;;2.10;2.00;;;;;;;;;;12476418;28;20033;-73
2022/09/04 00:56:31;;;;;;;2.45;2.25;;;;;;;;;;12493694;28;20029;-73
2022/09/04 01:02:51;;;;;;;2.78;2.15;;;;;;;;;;12493641;28;20042;-73
2022/09/04 01:09:00;;;;;;;2.17;2.08;;;;;;;;;;12475710;28;20403;-74
2022/09/04 01:15:13;;;;;;;2.38;2.28;;;;;;;;;;12475463;28;20046;-74
2022/09/04 01:21:14;;;;;;;2.38;2.20;;;;;;;;;;12475526;28;20037;-73
2022/09/04 01:27:26;;;;;;;2.53;2.33;;;;;;;;;;12465846;28;20048;-73
2022/09/04 01:33:40;;;;;;;2.37;2.27;;;;;;;;;;12501509;28;20460;-73
2022/09/04 01:39:45;;;;;;;2.47;2.28;;;;;;;;;;12501741;28;20048;-73
2022/09/04 01:45:59;;;;;;;2.78;2.58;;;;;;;;;;12501549;28;20052;-73
2022/09/04 01:52:09;;;;;;;1.90;1.80;;;;;;;;;;12500687;28;20033;-73
2022/09/04 01:58:11;;;;;;;2.63;2.53;;;;;;;;;;12500327;28;20029;-73
2022/09/04 02:04:17;;;;;;;3.58;2.83;;;;;;;;;;12482480;28;20380;-73
2022/09/04 02:10:32;;;;;;;2.88;2.67;;;;;;;;;;12466229;28;20058;-73
2022/09/04 02:16:44;;;;;;;3.33;3.13;;;;;;;;;;12500486;28;20033;-73
2022/09/04 02:22:46;;;;;;;;;;;;;;;;;;12499823;28;20037;-74
2022/09/04 02:29:14;;;;;;;2.97;2.77;;;;;;;;;;12481854;28;20283;-73
2022/09/04 02:35:23;;;;;;;3.30;3.10;;;;;;;;;;12476788;28;20041;-73
2022/09/04 02:41:30;;;;;;;2.90;2.58;;;;;;;;;;12499753;28;20025;-73
2022/09/04 02:47:44;;;;;;;2.80;2.60;;;;;;;;;;12498639;28;20049;-73
2022/09/04 02:54:01;;;;;;;2.45;2.30;;;;;;;;;;12464564;28;20033;-73
2022/09/04 03:00:08;;;;;;;2.65;2.50;;;;;;;;;;12480002;28;20476;-73
2022/09/04 03:06:12;;;;;;;2.88;2.67;;;;;;;;;;12497740;28;20045;-73
2022/09/04 03:12:29;;;;;;;3.08;2.88;;;;;;;;;;12497387;28;20521;-73
2022/09/04 03:18:30;;;;;;;2.95;2.78;;;;;;;;;;12496652;28;20044;-73
2022/09/04 03:24:34;;;;;;;2.40;2.30;;;;;;;;;;12496070;28;20048;-72
2022/09/04 03:30:36;;;;;;;2.85;2.65;;;;;;;;;;12478518;28;20384;-73
2022/09/04 03:37:01;;;;;;;3.17;2.88;;;;;;;;;;12496023;28;20060;-73
2022/09/04 03:43:12;;;;;;;2.15;2.05;;;;;;;;;;12486763;28;20052;-73
2022/09/04 03:49:22;;;;;;;3.40;3.20;;;;;;;;;;12495484;28;20056;-73
2022/09/04 03:55:35;;;;;;;3.08;2.88;;;;;;;;;;12496189;28;20068;-73
2022/09/04 04:01:49;;;;;;;3.42;3.13;;;;;;;;;;12494989;28;20037;-73
2022/09/04 04:08:09;;;;;;;3.15;2.95;;;;;;;;;;12494772;28;20395;-73
2022/09/04 04:14:18;;;;;;;3.15;2.83;;;;;;;;;;12477260;28;20411;-73
2022/09/04 04:20:21;;;;;;;3.03;2.83;;;;;;;;;;12494528;28;20044;-73
2022/09/04 04:26:25;;;;;;;2.80;2.60;;;;;;;;;;12494931;28;20049;-73
2022/09/04 04:32:46;;;;;;;3.03;2.83;;;;;;;;;;12495594;28;20033;-73
2022/09/04 04:38:51;;;;;;;3.40;3.13;;;;;;;;;;12494307;28;20030;-72
2022/09/04 04:51:16;;;;;;;2.50;2.35;;;;;;;;;;12494147;28;20036;-73
2022/09/04 04:57:17;;;;;;;2.97;2.67;;;;;;;;;;12493518;28;20026;-74
2022/09/04 05:03:26;;;;;;;2.63;2.53;;;;;;;;;;12484644;28;20038;-73
2022/09/04 05:09:36;;;;;;;2.65;2.45;;;;;;;;;;12469111;28;20064;-74
2022/09/04 05:15:42;;;;;;;2.17;2.08;;;;;;;;;;12485028;28;20033;-74
2022/09/04 05:21:56;;;;;;;3.45;3.25;;;;;;;;;;12502629;28;20036;-74
2022/09/04 05:27:58;;;;;;;2.55;2.38;;;;;;;;;;12501412;28;20046;-74
2022/09/04 05:34:09;;;;;;;2.30;2.20;;;;;;;;;;12484257;28;20033;-73
2022/09/04 05:40:20;;;;;;;2.38;2.25;;;;;;;;;;12502085;28;20041;-74
2022/09/04 05:46:40;;;;;;;2.33;2.17;;;;;;;;;;12483748;28;20048;-74
2022/09/04 05:53:02;;;;;;;2.20;2.10;;;;;;;;;;12501273;28;20411;-73
2022/09/04 05:59:07;;;;;;;3.53;2.88;;;;;;;;;;12500355;28;20478;-75
2022/09/04 06:05:11;;;;;;;4.72;4.03;;;;;;;;;;12499949;28;20507;-73
2022/09/04 06:11:19;;;;;;;3.20;3.00;;;;;;;;;;12499764;28;20055;-73
2022/09/04 06:17:36;;;;;;;3.83;3.53;;;;;;;;;;12499510;28;20034;-73
2022/09/04 06:24:10;;;;;;;3.15;2.95;;;;;;;;;;12465113;28;20044;-74
2022/09/04 06:30:13;;;;;;;3.03;2.65;;;;;;;;;;12455428;28;20046;-73
2022/09/04 06:36:24;;;;;;;2.60;2.42;;;;;;;;;;12480714;28;20041;-73
2022/09/04 06:42:29;;;;;;;2.17;2.00;;;;;;;;;;12481201;28;20037;-73
2022/09/04 06:48:50;;;;;;;2.42;2.22;;;;;;;;;;12480644;28;20045;-73
2022/09/04 06:54:54;;;;;;;2.10;2.00;;;;;;;;;;12497840;28;20395;-73
2022/09/04 07:01:10;;;;;;;1.92;1.70;;;;;;;;;;12497347;28;20033;-74
2022/09/04 07:07:17;;;;;;;2.38;2.17;;;;;;;;;;12497394;28;20527;-73
2022/09/04 07:13:27;;;;;;;2.30;2.10;;;;;;;;;;12497381;28;20049;-73
2022/09/04 07:19:48;;;;;;;2.00;1.80;;;;;;;;;;12479191;28;20044;-73
2022/09/04 07:25:56;;;;;;;3.20;2.20;;;;;;;;;;12478043;28;20072;-73
2022/09/04 07:32:04;;;;;;;3.58;1.95;;;;;;;;;;12496209;28;20036;-73
2022/09/04 07:38:09;;;;;;;2.08;1.85;;;;;;;;;;12478736;28;20048;-73
2022/09/04 07:44:25;;;;;;;1.65;1.55;;;;;;;;;;12477914;28;20041;-73
2022/09/04 07:50:34;;;;;;;4.20;2.10;;;;;;;;;;12495582;28;20036;-74
2022/09/04 07:56:53;;;;;;;1.98;1.60;;;;;;;;;;12477592;28;20041;-73
2022/09/04 08:02:58;;;;;;;1.60;1.50;;;;;;;;;;12494884;28;20029;-74
2022/09/04 08:09:09;;;;;;;1.55;1.27;;;;;;;;;;12461199;28;20061;-73
2022/09/04 08:15:21;;;;;;;1.42;1.30;;;;;;;;;;12460726;28;20483;-73
2022/09/04 08:21:22;;;;;;;1.33;1.23;;;;;;;;;;12475468;28;20029;-73
2022/09/04 08:27:48;;;;;;;1.70;1.60;;;;;;;;;;12474980;28;20045;-74
2022/09/04 08:33:53;;;;;;;1.45;0.93;;;;;;;;;;12480014;28;20025;-75
2022/09/04 08:40:02;;;;;;;0.80;0.80;;;;;;;;;;12487676;28;20037;-74
2022/09/04 08:46:19;;;;;;;1.60;0.90;;;;;;;;;;12486096;28;20061;-72
2022/09/04 08:52:44;;;;;;;1.33;0.90;;;;;;;;;;12486305;28;20037;-75
2022/09/04 08:59:12;;;;;;;0.85;0.80;;;;;;;;;;12449608;28;20403;-74
2022/09/04 09:05:14;;;;;;;0.68;0.68;;;;;;;;;;12499408;28;20068;-74
2022/09/04 09:11:34;;;;;;;0.70;0.70;;;;;;;;;;12502588;28;20415;-73
2022/09/04 09:17:39;;;;;;;0.60;0.50;;;;;;;;;;12502466;28;20048;-73
2022/09/04 09:23:58;;;;;;;0.80;0.80;;;;;;;;;;12503464;28;20029;-74
2022/09/04 09:30:06;;;;;;;0.70;0.70;;;;;;;;;;12502539;28;20483;-74
2022/09/04 09:36:26;;;;;;;1.10;0.90;;;;;;;;;;12502092;28;20037;-73
2022/09/04 09:42:38;;;;;;;0.80;0.80;;;;;;;;;;12468133;28;20037;-74
2022/09/04 09:48:59;;;;;;;0.90;0.90;;;;;;;;;;12466628;28;20048;-74
2022/09/04 09:55:20;;;;;;;1.40;1.30;;;;;;;;;;12466702;28;20060;-76
2022/09/04 10:01:24;;;;;;;0.90;0.90;;;;;;;;;;12482756;28;20033;-75
2022/09/04 10:07:45;;;;;;;0.82;0.82;;;;;;;;;;12465979;28;20399;-73
2022/09/04 10:13:47;;;;;;;0.82;0.82;;;;;;;;;;12483469;28;20053;-73
2022/09/04 10:19:52;;;;;;;0.90;0.88;;;;;;;;;;12499896;28;20037;-73
2022/09/04 10:26:08;;;;;;;1.52;1.02;;;;;;;;;;12481770;28;20060;-73
2022/09/04 10:32:30;;;;;;;0.98;0.95;;;;;;;;;;12499307;28;20033;-73
2022/09/04 10:38:35;;;;;;;0.60;0.60;;;;;;;;;;12481166;28;20036;-74
2022/09/04 10:44:40;;;;;;;1.30;1.00;;;;;;;;;;12480505;28;20053;-74
2022/09/04 10:51:00;;;;;;;1.90;1.05;;;;;;;;;;12498406;28;20395;-73
2022/09/04 10:57:13;;;;;;;1.13;0.93;;;;;;;;;;12479154;28;20034;-73
2022/09/04 11:03:33;;;;;;;0.80;0.80;;;;;;;;;;12479937;28;20033;-74
2022/09/04 11:09:35;;;;;;;1.20;0.73;;;;;;;;;;12497357;28;20084;-73
2022/09/04 11:16:01;;;;;;;1.20;1.00;;;;;;;;;;12496694;28;20041;-73
2022/09/04 11:22:11;;;;;;;0.85;0.85;;;;;;;;;;12496886;28;20029;-74
2022/09/04 11:28:31;;;;;;;0.98;0.85;;;;;;;;;;12479416;28;20045;-73
2022/09/04 11:34:49;;;;;;;1.17;0.73;;;;;;;;;;12462742;28;20495;-74
2022/09/04 11:41:00;;;;;;;1.13;1.02;;;;;;;;;;12478080;28;20056;-74
2022/09/04 11:47:20;;;;;;;0.90;0.90;;;;;;;;;;12478115;28;20045;-74
2022/09/04 11:53:34;;;;;;;1.48;1.00;;;;;;;;;;12477744;28;20041;-75
2022/09/04 11:59:49;;;;;;;2.88;1.35;;;;;;;;;;12461489;28;20037;-74
2022/09/04 12:05:53;;;;;;;1.10;1.00;;;;;;;;;;12494712;28;20041;-74
2022/09/04 12:11:55;;;;;;;1.27;1.10;;;;;;;;;;12477425;28;20072;-74
2022/09/04 12:17:57;;;;;;;1.15;1.10;;;;;;;;;;12460725;28;20045;-73
2022/09/04 12:24:29;;;;;;;1.30;1.00;;;;;;;;;;12476833;28;20498;-73
2022/09/04 12:30:49;;;;;;;1.33;1.23;;;;;;;;;;12461260;28;20052;-73
2022/09/04 12:37:10;;;;;;;2.08;1.17;;;;;;;;;;12494276;28;20393;-74
2022/09/04 12:43:15;;;;;;;2.65;1.15;;;;;;;;;;12460246;28;20041;-73
2022/09/04 12:49:38;;;;;;;1.30;1.20;;;;;;;;;;12476743;28;20049;-74
2022/09/04 12:55:55;;;;;;;1.50;1.30;;;;;;;;;;12493964;28;20036;-73
2022/09/04 13:02:05;;;;;;;1.50;1.00;;;;;;;;;;12476059;28;20038;-74
2022/09/04 13:08:06;;;;;;;0.80;0.80;;;;;;;;;;12475359;28;20038;-73
2022/09/04 13:14:11;;;;;;;0.85;0.85;;;;;;;;;;12493935;28;20055;-74
2022/09/04 13:20:39;;;;;;;0.77;0.70;;;;;;;;;;12478024;28;20036;-74
2022/09/04 13:26:55;;;;;;;1.23;0.90;;;;;;;;;;12455695;28;20380;-73
2022/09/04 13:32:59;;;;;;;0.90;0.90;;;;;;;;;;12468018;28;20041;-74
2022/09/04 13:39:28;;;;;;;1.45;0.80;;;;;;;;;;12484303;28;20037;-74
2022/09/04 13:45:33;;;;;;;1.45;0.90;;;;;;;;;;12480089;28;20072;-74
2022/09/04 13:51:37;;;;;;;1.00;1.00;;;;;;;;;;12483409;28;20041;-74
2022/09/04 13:57:46;;;;;;;0.75;0.75;;;;;;;;;;12483359;28;20025;-73
2022/09/04 14:03:50;;;;;;;1.10;0.80;;;;;;;;;;12482849;28;20030;-74
2022/09/04 14:09:56;;;;;;;0.70;0.70;;;;;;;;;;12500058;28;20057;-74
2022/09/04 14:16:02;;;;;;;1.23;0.60;;;;;;;;;;12499782;28;20045;-73
2022/09/04 14:22:04;;;;;;;0.50;0.50;;;;;;;;;;12482130;28;20052;-73
2022/09/04 14:28:12;;;;;;;0.90;0.90;;;;;;;;;;12481379;28;20041;-73
2022/09/04 14:34:24;;;;;;;1.02;0.80;;;;;;;;;;12464919;28;20033;-73
2022/09/04 14:40:30;;;;;;;0.80;0.80;;;;;;;;;;12499465;28;20040;-75
2022/09/04 14:46:50;;;;;;;0.60;0.60;;;;;;;;;;12481393;28;20045;-73
2022/09/04 14:52:57;;;;;;;1.33;0.90;;;;;;;;;;12498274;28;20045;-74
2022/09/04 14:59:10;;;;;;;0.65;0.65;;;;;;;;;;12497875;28;20774;-74
2022/09/04 15:05:12;;;;;;;0.70;0.70;;;;;;;;;;12497520;28;20041;-73
2022/09/04 15:11:31;;;;;;;0.95;0.90;;;;;;;;;;12497068;28;20423;-74
2022/09/04 15:17:36;;;;;;;0.88;0.70;;;;;;;;;;12496974;28;20064;-74
2022/09/04 15:23:43;;;;;;;1.48;0.70;;;;;;;;;;12478882;28;20034;-73
2022/09/04 15:29:51;;;;;;;0.73;0.68;;;;;;;;;;12479105;28;20061;-73
2022/09/04 15:36:03;;;;;;;1.80;1.00;;;;;;;;;;12495867;28;20037;-73
2022/09/04 15:42:09;;;;;;;0.75;0.65;;;;;;;;;;12496186;28;20063;-73
2022/09/04 15:48:14;;;;;;;0.52;0.52;;;;;;;;;;12477959;28;20399;-74
2022/09/04 15:54:25;;;;;;;1.88;1.00;;;;;;;;;;12477629;28;20033;-74
2022/09/04 16:00:30;;;;;;;1.23;0.70;;;;;;;;;;12461184;28;20033;-74
2022/09/04 16:06:38;;;;;;;0.60;0.60;;;;;;;;;;12477087;28;20045;-74
2022/09/04 16:12:50;;;;;;;1.17;0.80;;;;;;;;;;12494691;28;20053;-72
2022/09/04 16:18:57;;;;;;;1.00;0.68;;;;;;;;;;12477117;28;20535;-74
2022/09/04 16:25:22;;;;;;;0.68;0.60;;;;;;;;;;12476458;28;20049;-73
2022/09/04 16:31:30;;;;;;;0.57;0.50;;;;;;;;;;12477136;28;20040;-74
2022/09/04 16:37:44;;;;;;;0.65;0.60;;;;;;;;;;12476565;28;20041;-74
2022/09/04 16:44:04;;;;;;;1.15;0.68;;;;;;;;;;12476532;28;20037;-73
2022/09/04 16:50:22;;;;;;;1.90;0.60;;;;;;;;;;12493875;28;20042;-73
2022/09/04 16:56:33;;;;;;;1.02;0.60;;;;;;;;;;12464721;28;20041;-72
2022/09/04 17:02:42;;;;;;;0.60;0.60;;;;;;;;;;12485655;28;20033;-72
2022/09/04 17:09:07;;;;;;;1.67;0.70;;;;;;;;;;12468893;28;20053;-73
2022/09/04 17:15:12;;;;;;;0.75;0.63;;;;;;;;;;12475359;28;20057;-73
2022/09/04 17:22:30;;;;;;;0.60;0.60;;;;;;;;;;12503248;28;20464;-74
2022/09/04 17:27:56;;;;;;;1.23;0.73;;;;;;;;;;12502104;28;20060;-74
2022/09/04 17:34:00;;;;;;;1.67;0.80;;;;;;;;;;12484490;28;20033;-73
2022/09/04 17:40:08;;;;;;;0.85;0.75;;;;;;;;;;12484373;28;20387;-73
2022/09/04 17:46:23;;;;;;;1.67;0.90;;;;;;;;;;12501213;28;20495;-73
2022/09/04 17:52:30;;;;;;;1.02;0.85;;;;;;;;;;12483660;28;20397;-73
2022/09/04 17:58:35;;;;;;;0.95;0.95;;;;;;;;;;12467013;28;20372;-73
2022/09/04 18:04:47;;;;;;;1.65;0.80;;;;;;;;;;12500644;28;20037;-73
2022/09/04 18:11:11;;;;;;;0.82;0.82;;;;;;;;;;12500584;28;20488;-73
2022/09/04 18:17:20;;;;;;;1.20;0.90;;;;;;;;;;12482869;28;20045;-73
2022/09/04 18:23:39;;;;;;;2.33;1.25;;;;;;;;;;12482108;28;20033;-74
2022/09/04 18:29:50;;;;;;;1.00;0.88;;;;;;;;;;12481699;28;20049;-74
2022/09/04 18:35:54;;;;;;;1.35;1.10;;;;;;;;;;12482205;28;20033;-73
2022/09/04 18:42:14;;;;;;;1.50;0.85;;;;;;;;;;12500409;28;20037;-73
2022/09/04 18:48:20;;;;;;;1.30;1.05;;;;;;;;;;12498389;28;20056;-73
2022/09/04 18:54:22;;;;;;;1.27;1.17;;;;;;;;;;12498447;28;20395;-73
2022/09/04 19:00:23;;;;;;;;;;;;;;;;;;12498506;28;20045;-73
2022/09/04 19:06:33;;;;;;;0.70;0.70;;;;;;;;;;12497628;28;19917;-73
2022/09/04 19:13:00;;;;;;;1.00;0.90;;;;;;;;;;12480699;28;20308;-74
2022/09/04 19:19:05;;;;;;;2.20;1.00;;;;;;;;;;12496104;28;20399;-74
2022/09/04 19:25:19;;;;;;;0.98;0.70;;;;;;;;;;12462754;28;20045;-73
2022/09/04 19:31:30;;;;;;;1.05;0.75;;;;;;;;;;12496296;28;20030;-74
2022/09/04 19:37:38;;;;;;;1.25;0.70;;;;;;;;;;12462305;28;20476;-74
2022/09/04 19:43:52;;;;;;;0.80;0.70;;;;;;;;;;12463072;28;20060;-74
2022/09/04 19:49:56;;;;;;;0.82;0.80;;;;;;;;;;12478733;28;20092;-73
2022/09/04 19:56:10;;;;;;;0.80;0.80;;;;;;;;;;12477958;28;20029;-74
2022/09/04 20:02:35;;;;;;;1.83;1.45;;;;;;;;;;12478103;28;20475;-74
2022/09/04 20:08:42;;;;;;;2.25;1.20;;;;;;;;;;12467001;28;20060;-75
2022/09/04 20:14:49;;;;;;;1.20;0.98;;;;;;;;;;12477333;28;20404;-74
2022/09/04 20:21:16;;;;;;;0.88;0.88;;;;;;;;;;12494334;28;20021;-74
2022/09/04 20:27:23;;;;;;;1.27;0.98;;;;;;;;;;12490791;28;20167;-74
2022/09/04 20:33:26;;;;;;;1.30;0.95;;;;;;;;;;12470416;28;20044;-74
2022/09/04 20:39:34;;;;;;;1.33;1.23;;;;;;;;;;12505353;28;20038;-73
2022/09/04 20:45:55;;;;;;;1.77;1.20;;;;;;;;;;12486397;28;20418;-73
2022/09/04 20:51:58;;;;;;;1.17;1.10;;;;;;;;;;12487003;28;20033;-74
2022/09/04 20:58:06;;;;;;;2.03;1.52;;;;;;;;;;12503545;28;20471;-74
2022/09/04 21:04:37;;;;;;;2.08;1.75;;;;;;;;;;12469555;28;20395;-73
2022/09/04 21:10:44;;;;;;;1.50;1.40;;;;;;;;;;12432791;28;20042;-73
2022/09/04 21:17:00;;;;;;;1.80;1.35;;;;;;;;;;12484965;28;20041;-74
2022/09/04 21:23:06;;;;;;;1.67;1.40;;;;;;;;;;12504356;28;20029;-73
2022/09/04 21:29:26;;;;;;;3.03;2.20;;;;;;;;;;12502322;28;20053;-73
2022/09/04 21:35:57;;;;;;;2.00;1.80;;;;;;;;;;12484454;28;20040;-74
2022/09/04 21:42:17;;;;;;;2.03;1.92;;;;;;;;;;12414456;28;20049;-73
2022/09/04 21:48:42;;;;;;;1.83;1.73;;;;;;;;;;12483343;28;20475;-73
2022/09/04 21:55:00;;;;;;;3.50;1.73;;;;;;;;;;12490562;28;20041;-73
2022/09/04 22:01:05;;;;;;;2.30;2.10;;;;;;;;;;12482828;28;20038;-73
2022/09/04 22:07:29;;;;;;;2.10;1.88;;;;;;;;;;12482933;28;20037;-73
2022/09/04 22:13:51;;;;;;;2.03;1.83;;;;;;;;;;12500684;28;20041;-73
2022/09/04 22:20:12;;;;;;;2.47;2.28;;;;;;;;;;12481356;28;20048;-74
2022/09/04 22:26:37;;;;;;;1.90;1.70;;;;;;;;;;12499890;28;20530;-74
2022/09/04 22:32:58;;;;;;;2.92;1.90;;;;;;;;;;12465502;28;20402;-73
2022/09/04 22:39:14;;;;;;;1.88;1.77;;;;;;;;;;12481751;28;20022;-73
2022/09/04 22:45:34;;;;;;;1.88;1.77;;;;;;;;;;12498599;28;20049;-73
2022/09/04 22:51:46;;;;;;;2.15;2.05;;;;;;;;;;12498534;28;20040;-73
2022/09/04 22:58:07;;;;;;;2.30;2.10;;;;;;;;;;12463974;28;20040;-73
2022/09/04 23:04:15;;;;;;;2.63;2.42;;;;;;;;;;12480814;28;20049;-73
2022/09/04 23:10:42;;;;;;;2.70;2.50;;;;;;;;;;12479927;28;20060;-74
2022/09/04 23:17:04;;;;;;;2.13;2.03;;;;;;;;;;12463450;28;20045;-73
2022/09/04 23:23:28;;;;;;;3.15;2.30;;;;;;;;;;12478828;28;20041;-73
2022/09/04 23:29:32;;;;;;;2.47;2.28;;;;;;;;;;12496241;28;20045;-73
2022/09/04 23:35:46;;;;;;;3.00;2.80;;;;;;;;;;12496740;28;20040;-73
2022/09/04 23:41:51;;;;;;;2.50;2.30;;;;;;;;;;12495888;28;20506;-73
2022/09/04 23:48:05;;;;;;;2.78;2.42;;;;;;;;;;12496214;28;20057;-73
2022/09/04 23:54:27;;;;;;;3.88;3.58;;;;;;;;;;12477816;28;20040;-74
